Edith Kirk — 2DST9 — position and weather

sailwx.info

Track history (hours):
 
Tides and Currents Weather Stations Pressure Air Temp Water Temp Dewpoint Dewpoint Depression Visibility Wind Speed Wind Dir Waves Ship Positions

Edith Kirk

Last reported at 2016-Jul-24 17:33 UTC. Time now 2016-Jul-24 18:29 UTC.
Position N 56°15' E 012°09'.

Length 183 m; draft 6.8 m.

Type: Ship. MMSI: 235081745.

Date/timePositionNaut miles runAvg speedWind from/ knotsBaromVisibWave heightAir tempDewpointWater temp
2016-Jul-24 17:33N 56°15' E 012°09'1413.6
2016-Jul-24 16:33N 56°28' E 011°59'1414.2
2016-Jul-24 15:32N 56°42' E 011°53'1414.1
2016-Jul-24 14:33N 56°55' E 011°46'1413.9
2016-Jul-24 13:33N 57°08' E 011°37'1413.8
2016-Jul-24 12:33N 57°21' E 011°29'1312.9
2016-Jul-24 11:33N 57°32' E 011°15'1413.6
2016-Jul-24 10:33N 57°41' E 010°57'1312.7
2016-Jul-24 09:33N 57°49' E 010°38'1414.0
2016-Jul-24 08:33N 57°50' E 010°12'1414.0
2016-Jul-24 07:33N 57°47' E 009°47'1414.4
2016-Jul-24 06:33N 57°43' E 009°20'1514.4
2016-Jul-24 05:33N 57°39' E 008°54'1513.8
2016-Jul-24 04:25N 57°30' E 008°31'2813.4
2016-Jul-24 02:20N 57°13' E 007°50'1113.2
2016-Jul-24 01:30N 57°06' E 007°33'1212.8
2016-Jul-24 00:33N 56°59' E 007°16'2812.8
2016-Jul-23 22:22N 56°34' E 006°53'2412.9
2016-Jul-23 20:30N 56°12' E 006°35'2713.2
2016-Jul-23 18:28N 55°47' E 006°15'7913.2
2016-Jul-23 12:30N 54°39' E 005°05'2913.1
2016-Jul-23 10:19N 54°14' E 004°44'1213.1
2016-Jul-23 09:23N 54°02' E 004°39'1213.1
2016-Jul-23 08:28N 53°51' E 004°30'1413.3
2016-Jul-23 07:27N 53°42' E 004°13'1213.8
2016-Jul-23 06:33N 53°35' E 003°56'2914.2
2016-Jul-23 04:29N 53°10' E 003°31'1414.8
2016-Jul-23 03:33N 52°57' E 003°22'1514.3
2016-Jul-23 02:28N 52°43' E 003°10'1513.6
2016-Jul-23 01:20N 52°30' E 002°58'1112.7
2016-Jul-23 00:28N 52°20' E 002°50'1112.1
2016-Jul-22 23:33N 52°10' E 002°42'1211.9
2016-Jul-22 22:34N 51°58' E 002°39'1110.6
2016-Jul-22 21:33N 51°48' E 002°42'1614.2
2016-Jul-22 20:25N 51°47' E 003°08'8 5.7
2016-Jul-22 19:05N 51°48' E 003°20'0 0.1
2016-Jul-22 17:17N 51°48' E 003°20'0 0.0
2016-Jul-22 16:32N 51°48' E 003°20'0 0.0
2016-Jul-22 15:26N 51°48' E 003°20'0 0.0
2016-Jul-22 14:29N 51°48' E 003°20'0 0.1
2016-Jul-22 13:14N 51°48' E 003°20'0 0.1
2016-Jul-22 12:29N 51°48' E 003°20'0 0.0
2016-Jul-22 11:14N 51°48' E 003°20'0 0.0
2016-Jul-22 10:08N 51°48' E 003°20'0 0.0
2016-Jul-22 09:26N 51°48' E 003°20'0 0.0
2016-Jul-22 08:11N 51°48' E 003°20'0 0.1
2016-Jul-22 04:32N 51°48' E 003°20'0 0.0
2016-Jul-22 03:29N 51°48' E 003°20'0 0.0
2016-Jul-22 02:32N 51°48' E 003°20'0 0.1
2016-Jul-22 01:34N 51°48' E 003°20'5 5.3
2016-Jul-22 00:34N 51°44' E 003°16'1212.1
2016-Jul-21 23:33N 51°33' E 003°25'9 9.3
2016-Jul-21 22:34N 51°26' E 003°35'5 5.4
2016-Jul-21 21:34N 51°25' E 003°43'0 0.4
2016-Jul-21 20:32N 51°25' E 003°44'0 0.0
2016-Jul-21 19:32N 51°25' E 003°44'0 0.0
2016-Jul-21 18:29N 51°25' E 003°44'0 0.0
2016-Jul-21 17:29N 51°25' E 003°44'0 0.0
2016-Jul-21 16:29N 51°25' E 003°44'0 0.0
2016-Jul-21 15:29N 51°25' E 003°44'0 0.0
2016-Jul-21 14:23N 51°25' E 003°44'0 0.0
2016-Jul-21 13:29N 51°25' E 003°44'0 0.0
2016-Jul-21 12:29N 51°25' E 003°44'0 0.0
2016-Jul-21 11:32N 51°25' E 003°44'0 0.0
2016-Jul-21 10:32N 51°25' E 003°44'0 0.0
2016-Jul-21 09:29N 51°25' E 003°44'0 0.0
2016-Jul-21 08:29N 51°25' E 003°44'0 0.0
2016-Jul-21 07:32N 51°25' E 003°44'0 0.0
2016-Jul-21 06:32N 51°25' E 003°44'0 0.0
2016-Jul-21 04:29N 51°25' E 003°44'0 0.0
2016-Jul-21 03:32N 51°25' E 003°44'0 0.0
2016-Jul-21 02:32N 51°25' E 003°44'0 0.0
2016-Jul-21 01:29N 51°25' E 003°44'0 0.0
2016-Jul-21 00:29N 51°25' E 003°44'0 0.0
2016-Jul-20 23:32N 51°25' E 003°44'0 0.0
2016-Jul-20 22:29N 51°25' E 003°44'0 0.0
2016-Jul-20 21:32N 51°25' E 003°44'0 0.0
2016-Jul-20 20:29N 51°25' E 003°44'0 0.0
2016-Jul-20 19:29N 51°25' E 003°44'0 0.0
2016-Jul-20 18:32N 51°25' E 003°44'0 0.0
2016-Jul-20 17:32N 51°25' E 003°44'0 0.0
2016-Jul-20 16:32N 51°25' E 003°44'0 0.0
2016-Jul-20 15:32N 51°25' E 003°44'0 0.0
2016-Jul-20 14:29N 51°25' E 003°44'0 0.0
2016-Jul-20 13:29N 51°25' E 003°44'0 0.0
2016-Jul-20 12:32N 51°25' E 003°44'0 0.0
2016-Jul-20 11:29N 51°25' E 003°44'0 0.0
2016-Jul-20 10:32N 51°25' E 003°44'0 0.0
2016-Jul-20 09:32N 51°25' E 003°44'0 0.0
2016-Jul-20 08:32N 51°25' E 003°44'0 0.0
2016-Jul-20 07:32N 51°25' E 003°44'0 0.0
2016-Jul-20 06:32N 51°25' E 003°44'0 0.0
2016-Jul-20 05:29N 51°25' E 003°44'0 0.0
2016-Jul-20 04:29N 51°25' E 003°44'0 0.0
2016-Jul-20 03:29N 51°25' E 003°44'0 0.0
2016-Jul-20 02:32N 51°25' E 003°44'0 0.0
2016-Jul-20 01:29N 51°25' E 003°44'0 0.0
2016-Jul-20 00:29N 51°25' E 003°44'0 0.0
2016-Jul-19 23:29N 51°25' E 003°44'0 0.0
2016-Jul-19 22:29N 51°25' E 003°44'0 0.0
2016-Jul-19 21:34N 51°25' E 003°44'8 7.6
2016-Jul-19 20:33N 51°25' E 003°32'1212.1
2016-Jul-19 19:34N 51°24' E 003°12'1111.2
2016-Jul-19 18:33N 51°22' E 002°54'1111.0
2016-Jul-19 17:33N 51°22' E 002°37'3 1.6
2016-Jul-19 15:25N 51°25' E 002°35'0 0.0
2016-Jul-19 14:31N 51°25' E 002°35'0 0.0
2016-Jul-19 13:19N 51°25' E 002°35'0 0.0
2016-Jul-19 12:31N 51°25' E 002°35'0 0.1
2016-Jul-19 11:31N 51°25' E 002°35'0 0.2
2016-Jul-19 10:31N 51°25' E 002°35'0 0.1
2016-Jul-19 09:31N 51°25' E 002°35'0 0.0
2016-Jul-19 08:31N 51°25' E 002°35'0 0.0
2016-Jul-19 07:28N 51°25' E 002°35'0 0.0
2016-Jul-19 06:19N 51°25' E 002°35'0 0.1
2016-Jul-19 04:31N 51°25' E 002°35'0 0.1
2016-Jul-19 03:31N 51°25' E 002°35'0 0.1
2016-Jul-19 02:31N 51°25' E 002°35'0 0.0
2016-Jul-19 01:28N 51°25' E 002°35'0 0.0
2016-Jul-19 00:28N 51°25' E 002°35'0 0.0
2016-Jul-18 23:31N 51°25' E 002°35'0 0.0
2016-Jul-18 22:31N 51°25' E 002°35'0 0.2
2016-Jul-18 21:19N 51°25' E 002°35'0 0.0
2016-Jul-18 20:22N 51°25' E 002°35'0 0.0
2016-Jul-18 19:31N 51°25' E 002°35'0 0.0
2016-Jul-18 17:31N 51°25' E 002°35'0 0.0
2016-Jul-18 16:31N 51°25' E 002°35'0 0.2
2016-Jul-18 15:31N 51°25' E 002°35'0 0.1
2016-Jul-18 14:31N 51°25' E 002°35'0 0.0
2016-Jul-18 13:28N 51°25' E 002°35'0 0.0
2016-Jul-18 12:31N 51°25' E 002°35'0 0.0
2016-Jul-18 11:31N 51°25' E 002°35'0 0.0
2016-Jul-18 10:28N 51°25' E 002°35'0 0.2
2016-Jul-18 09:31N 51°25' E 002°35'0 0.1
2016-Jul-18 08:31N 51°25' E 002°35'0 0.0
2016-Jul-18 07:28N 51°25' E 002°35'0 0.0
2016-Jul-18 06:31N 51°25' E 002°35'0 0.0
2016-Jul-18 05:31N 51°25' E 002°35'0 0.0
2016-Jul-18 04:31N 51°25' E 002°35'0 0.2
2016-Jul-18 03:28N 51°25' E 002°35'0 0.0
2016-Jul-18 02:31N 51°25' E 002°35'0 0.0
2016-Jul-18 01:31N 51°25' E 002°35'0 0.0
2016-Jul-18 00:31N 51°25' E 002°35'0 0.0
2016-Jul-17 23:31N 51°25' E 002°35'0 0.0
2016-Jul-17 22:28N 51°25' E 002°35'0 0.0
2016-Jul-17 21:31N 51°25' E 002°35'0 0.2
2016-Jul-17 20:31N 51°25' E 002°35'0 0.1
2016-Jul-17 19:31N 51°25' E 002°35'0 0.0
2016-Jul-17 18:25N 51°25' E 002°35'0 0.1
2016-Jul-17 16:10N 51°25' E 002°35'0 0.1
2016-Jul-17 15:31N 51°25' E 002°35'0 0.0
2016-Jul-17 14:31N 51°25' E 002°35'0 0.0
2016-Jul-17 13:28N 51°25' E 002°35'0 0.0
2016-Jul-17 12:28N 51°25' E 002°35'0 0.0
2016-Jul-17 10:28N 51°25' E 002°35'0 0.0
2016-Jul-17 09:31N 51°25' E 002°35'0 0.1
2016-Jul-17 06:04N 51°25' E 002°35'5 3.3
2016-Jul-17 04:33N 51°22' E 002°29'1211.8
2016-Jul-17 03:33N 51°18' E 002°11'1110.8
2016-Jul-17 02:33N 51°25' E 001°58'1212.1
2016-Jul-17 01:33N 51°35' E 002°09'47012.0
2016-Jul-15 10:17N 57°49' E 010°22'912.5
2016-Jul-15 09:33N 57°49' E 010°40'1211.6
2016-Jul-15 08:33N 57°42' E 010°57'1312.8
2016-Jul-15 07:33N 57°34' E 011°15'1312.7
2016-Jul-15 06:33N 57°23' E 011°29'1313.0
2016-Jul-15 05:33N 57°11' E 011°37'1312.7
2016-Jul-15 04:33N 56°59' E 011°45'1212.4
2016-Jul-15 03:33N 56°48' E 011°53'1211.5
2016-Jul-15 02:33N 56°39' E 011°41'3611.9
2016-Jul-14 23:31N 56°08' E 011°06'5011.6
2016-Jul-14 19:13N 55°18' E 011°03'710.1
2016-Jul-14 18:30N 55°11' E 011°05'1212.9
2016-Jul-14 17:33N 54°59' E 011°01'  
Track history (hours):
 
Tides and Currents Weather Stations Pressure Air Temp Water Temp Dewpoint Dewpoint Depression Visibility Wind Speed Wind Dir Waves Ship Positions

Edith Kirk

Last reported at 2016-Jul-24 17:33 UTC. Time now 2016-Jul-24 18:29 UTC.
Position N 56°15' E 012°09'.

Length 183 m; draft 6.8 m.

Type: Ship. MMSI: 235081745.

Date/timePositionNaut miles runAvg speedWind from/ knotsBaromVisibWave heightAir tempDewpointWater temp
2016-Jul-24 17:33N 56°15' E 012°09'1413.6
2016-Jul-24 16:33N 56°28' E 011°59'1414.2
2016-Jul-24 15:32N 56°42' E 011°53'1414.1
2016-Jul-24 14:33N 56°55' E 011°46'1413.9
2016-Jul-24 13:33N 57°08' E 011°37'1413.8
2016-Jul-24 12:33N 57°21' E 011°29'1312.9
2016-Jul-24 11:33N 57°32' E 011°15'1413.6
2016-Jul-24 10:33N 57°41' E 010°57'1312.7
2016-Jul-24 09:33N 57°49' E 010°38'1414.0
2016-Jul-24 08:33N 57°50' E 010°12'1414.0
2016-Jul-24 07:33N 57°47' E 009°47'1414.4
2016-Jul-24 06:33N 57°43' E 009°20'1514.4
2016-Jul-24 05:33N 57°39' E 008°54'1513.8
2016-Jul-24 04:25N 57°30' E 008°31'2813.4
2016-Jul-24 02:20N 57°13' E 007°50'1113.2
2016-Jul-24 01:30N 57°06' E 007°33'1212.8
2016-Jul-24 00:33N 56°59' E 007°16'2812.8
2016-Jul-23 22:22N 56°34' E 006°53'2412.9
2016-Jul-23 20:30N 56°12' E 006°35'2713.2
2016-Jul-23 18:28N 55°47' E 006°15'7913.2
2016-Jul-23 12:30N 54°39' E 005°05'2913.1
2016-Jul-23 10:19N 54°14' E 004°44'1213.1
2016-Jul-23 09:23N 54°02' E 004°39'1213.1
2016-Jul-23 08:28N 53°51' E 004°30'1413.3
2016-Jul-23 07:27N 53°42' E 004°13'1213.8
2016-Jul-23 06:33N 53°35' E 003°56'2914.2
2016-Jul-23 04:29N 53°10' E 003°31'1414.8
2016-Jul-23 03:33N 52°57' E 003°22'1514.3
2016-Jul-23 02:28N 52°43' E 003°10'1513.6
2016-Jul-23 01:20N 52°30' E 002°58'1112.7
2016-Jul-23 00:28N 52°20' E 002°50'1112.1
2016-Jul-22 23:33N 52°10' E 002°42'1211.9
2016-Jul-22 22:34N 51°58' E 002°39'1110.6
2016-Jul-22 21:33N 51°48' E 002°42'1614.2
2016-Jul-22 20:25N 51°47' E 003°08'8 5.7
2016-Jul-22 19:05N 51°48' E 003°20'0 0.1
2016-Jul-22 17:17N 51°48' E 003°20'0 0.0
2016-Jul-22 16:32N 51°48' E 003°20'0 0.0
2016-Jul-22 15:26N 51°48' E 003°20'0 0.0
2016-Jul-22 14:29N 51°48' E 003°20'0 0.1
2016-Jul-22 13:14N 51°48' E 003°20'0 0.1
2016-Jul-22 12:29N 51°48' E 003°20'0 0.0
2016-Jul-22 11:14N 51°48' E 003°20'0 0.0
2016-Jul-22 10:08N 51°48' E 003°20'0 0.0
2016-Jul-22 09:26N 51°48' E 003°20'0 0.0
2016-Jul-22 08:11N 51°48' E 003°20'0 0.1
2016-Jul-22 04:32N 51°48' E 003°20'0 0.0
2016-Jul-22 03:29N 51°48' E 003°20'0 0.0
2016-Jul-22 02:32N 51°48' E 003°20'0 0.1
2016-Jul-22 01:34N 51°48' E 003°20'5 5.3
2016-Jul-22 00:34N 51°44' E 003°16'1212.1
2016-Jul-21 23:33N 51°33' E 003°25'9 9.3
2016-Jul-21 22:34N 51°26' E 003°35'5 5.4
2016-Jul-21 21:34N 51°25' E 003°43'0 0.4
2016-Jul-21 20:32N 51°25' E 003°44'0 0.0
2016-Jul-21 19:32N 51°25' E 003°44'0 0.0
2016-Jul-21 18:29N 51°25' E 003°44'0 0.0
2016-Jul-21 17:29N 51°25' E 003°44'0 0.0
2016-Jul-21 16:29N 51°25' E 003°44'0 0.0
2016-Jul-21 15:29N 51°25' E 003°44'0 0.0
2016-Jul-21 14:23N 51°25' E 003°44'0 0.0
2016-Jul-21 13:29N 51°25' E 003°44'0 0.0
2016-Jul-21 12:29N 51°25' E 003°44'0 0.0
2016-Jul-21 11:32N 51°25' E 003°44'0 0.0
2016-Jul-21 10:32N 51°25' E 003°44'0 0.0
2016-Jul-21 09:29N 51°25' E 003°44'0 0.0
2016-Jul-21 08:29N 51°25' E 003°44'0 0.0
2016-Jul-21 07:32N 51°25' E 003°44'0 0.0
2016-Jul-21 06:32N 51°25' E 003°44'0 0.0
2016-Jul-21 04:29N 51°25' E 003°44'0 0.0
2016-Jul-21 03:32N 51°25' E 003°44'0 0.0
2016-Jul-21 02:32N 51°25' E 003°44'0 0.0
2016-Jul-21 01:29N 51°25' E 003°44'0 0.0
2016-Jul-21 00:29N 51°25' E 003°44'0 0.0
2016-Jul-20 23:32N 51°25' E 003°44'0 0.0
2016-Jul-20 22:29N 51°25' E 003°44'0 0.0
2016-Jul-20 21:32N 51°25' E 003°44'0 0.0
2016-Jul-20 20:29N 51°25' E 003°44'0 0.0
2016-Jul-20 19:29N 51°25' E 003°44'0 0.0
2016-Jul-20 18:32N 51°25' E 003°44'0 0.0
2016-Jul-20 17:32N 51°25' E 003°44'0 0.0
2016-Jul-20 16:32N 51°25' E 003°44'0 0.0
2016-Jul-20 15:32N 51°25' E 003°44'0 0.0
2016-Jul-20 14:29N 51°25' E 003°44'0 0.0
2016-Jul-20 13:29N 51°25' E 003°44'0 0.0
2016-Jul-20 12:32N 51°25' E 003°44'0 0.0
2016-Jul-20 11:29N 51°25' E 003°44'0 0.0
2016-Jul-20 10:32N 51°25' E 003°44'0 0.0
2016-Jul-20 09:32N 51°25' E 003°44'0 0.0
2016-Jul-20 08:32N 51°25' E 003°44'0 0.0
2016-Jul-20 07:32N 51°25' E 003°44'0 0.0
2016-Jul-20 06:32N 51°25' E 003°44'0 0.0
2016-Jul-20 05:29N 51°25' E 003°44'0 0.0
2016-Jul-20 04:29N 51°25' E 003°44'0 0.0
2016-Jul-20 03:29N 51°25' E 003°44'0 0.0
2016-Jul-20 02:32N 51°25' E 003°44'0 0.0
2016-Jul-20 01:29N 51°25' E 003°44'0 0.0
2016-Jul-20 00:29N 51°25' E 003°44'0 0.0
2016-Jul-19 23:29N 51°25' E 003°44'0 0.0
2016-Jul-19 22:29N 51°25' E 003°44'0 0.0
2016-Jul-19 21:34N 51°25' E 003°44'8 7.6
2016-Jul-19 20:33N 51°25' E 003°32'1212.1
2016-Jul-19 19:34N 51°24' E 003°12'1111.2
2016-Jul-19 18:33N 51°22' E 002°54'1111.0
2016-Jul-19 17:33N 51°22' E 002°37'3 1.6
2016-Jul-19 15:25N 51°25' E 002°35'0 0.0
2016-Jul-19 14:31N 51°25' E 002°35'0 0.0
2016-Jul-19 13:19N 51°25' E 002°35'0 0.0
2016-Jul-19 12:31N 51°25' E 002°35'0 0.1
2016-Jul-19 11:31N 51°25' E 002°35'0 0.2
2016-Jul-19 10:31N 51°25' E 002°35'0 0.1
2016-Jul-19 09:31N 51°25' E 002°35'0 0.0
2016-Jul-19 08:31N 51°25' E 002°35'0 0.0
2016-Jul-19 07:28N 51°25' E 002°35'0 0.0
2016-Jul-19 06:19N 51°25' E 002°35'0 0.1
2016-Jul-19 04:31N 51°25' E 002°35'0 0.1
2016-Jul-19 03:31N 51°25' E 002°35'0 0.1
2016-Jul-19 02:31N 51°25' E 002°35'0 0.0
2016-Jul-19 01:28N 51°25' E 002°35'0 0.0
2016-Jul-19 00:28N 51°25' E 002°35'0 0.0
2016-Jul-18 23:31N 51°25' E 002°35'0 0.0
2016-Jul-18 22:31N 51°25' E 002°35'0 0.2
2016-Jul-18 21:19N 51°25' E 002°35'0 0.0
2016-Jul-18 20:22N 51°25' E 002°35'0 0.0
2016-Jul-18 19:31N 51°25' E 002°35'0 0.0
2016-Jul-18 17:31N 51°25' E 002°35'0 0.0
2016-Jul-18 16:31N 51°25' E 002°35'0 0.2
2016-Jul-18 15:31N 51°25' E 002°35'0 0.1
2016-Jul-18 14:31N 51°25' E 002°35'0 0.0
2016-Jul-18 13:28N 51°25' E 002°35'0 0.0
2016-Jul-18 12:31N 51°25' E 002°35'0 0.0
2016-Jul-18 11:31N 51°25' E 002°35'0 0.0
2016-Jul-18 10:28N 51°25' E 002°35'0 0.2
2016-Jul-18 09:31N 51°25' E 002°35'0 0.1
2016-Jul-18 08:31N 51°25' E 002°35'0 0.0
2016-Jul-18 07:28N 51°25' E 002°35'0 0.0
2016-Jul-18 06:31N 51°25' E 002°35'0 0.0
2016-Jul-18 05:31N 51°25' E 002°35'0 0.0
2016-Jul-18 04:31N 51°25' E 002°35'0 0.2
2016-Jul-18 03:28N 51°25' E 002°35'0 0.0
2016-Jul-18 02:31N 51°25' E 002°35'0 0.0
2016-Jul-18 01:31N 51°25' E 002°35'0 0.0
2016-Jul-18 00:31N 51°25' E 002°35'0 0.0
2016-Jul-17 23:31N 51°25' E 002°35'0 0.0
2016-Jul-17 22:28N 51°25' E 002°35'0 0.0
2016-Jul-17 21:31N 51°25' E 002°35'0 0.2
2016-Jul-17 20:31N 51°25' E 002°35'0 0.1
2016-Jul-17 19:31N 51°25' E 002°35'0 0.0
2016-Jul-17 18:25N 51°25' E 002°35'0 0.1
2016-Jul-17 16:10N 51°25' E 002°35'0 0.1
2016-Jul-17 15:31N 51°25' E 002°35'0 0.0
2016-Jul-17 14:31N 51°25' E 002°35'0 0.0
2016-Jul-17 13:28N 51°25' E 002°35'0 0.0
2016-Jul-17 12:28N 51°25' E 002°35'0 0.0
2016-Jul-17 10:28N 51°25' E 002°35'0 0.0
2016-Jul-17 09:31N 51°25' E 002°35'0 0.1
2016-Jul-17 06:04N 51°25' E 002°35'5 3.3
2016-Jul-17 04:33N 51°22' E 002°29'1211.8
2016-Jul-17 03:33N 51°18' E 002°11'1110.8
2016-Jul-17 02:33N 51°25' E 001°58'1212.1
2016-Jul-17 01:33N 51°35' E 002°09'47012.0
2016-Jul-15 10:17N 57°49' E 010°22'912.5
2016-Jul-15 09:33N 57°49' E 010°40'1211.6
2016-Jul-15 08:33N 57°42' E 010°57'1312.8
2016-Jul-15 07:33N 57°34' E 011°15'1312.7
2016-Jul-15 06:33N 57°23' E 011°29'1313.0
2016-Jul-15 05:33N 57°11' E 011°37'1312.7
2016-Jul-15 04:33N 56°59' E 011°45'1212.4
2016-Jul-15 03:33N 56°48' E 011°53'1211.5
2016-Jul-15 02:33N 56°39' E 011°41'3611.9
2016-Jul-14 23:31N 56°08' E 011°06'5011.6
2016-Jul-14 19:13N 55°18' E 011°03'710.1
2016-Jul-14 18:30N 55°11' E 011°05'1212.9
2016-Jul-14 17:33N 54°59' E 011°01'  

Dump ship's entire track history